createdAt,value
2023-02-24T00:00:56.809Z,4.55
2023-02-24T00:01:56.829Z,4.53
2023-02-24T00:02:56.794Z,4.56
2023-02-24T00:03:56.815Z,4.70
2023-02-24T00:04:56.771Z,4.71
2023-02-24T00:05:56.748Z,4.62
2023-02-24T00:06:56.747Z,4.73
2023-02-24T00:07:56.732Z,4.62
2023-02-24T00:08:56.721Z,4.70
2023-02-24T00:09:56.728Z,4.62
2023-02-24T00:10:56.693Z,4.66
2023-02-24T00:11:56.704Z,4.73
2023-02-24T00:12:56.670Z,4.66
2023-02-24T00:13:56.666Z,4.70
2023-02-24T00:14:56.659Z,4.67
2023-02-24T00:15:56.680Z,4.73
2023-02-24T00:16:56.736Z,4.71
2023-02-24T00:17:56.610Z,4.70
2023-02-24T00:18:56.608Z,4.58
2023-02-24T00:19:56.602Z,4.71
2023-02-24T00:20:56.590Z,4.68
2023-02-24T00:21:56.571Z,4.78
2023-02-24T00:22:56.559Z,4.70
2023-02-24T00:23:56.543Z,4.70
2023-02-24T00:24:56.547Z,4.74
2023-02-24T00:25:56.524Z,4.80
2023-02-24T00:26:56.529Z,4.74
2023-02-24T00:27:56.518Z,4.75
2023-02-24T00:28:56.491Z,4.77
2023-02-24T00:29:56.488Z,4.68
2023-02-24T00:30:56.535Z,4.71
2023-02-24T00:31:56.753Z,4.74
2023-02-24T00:32:56.512Z,4.77
2023-02-24T00:33:56.434Z,4.66
2023-02-24T00:34:56.436Z,4.70
2023-02-24T00:35:56.414Z,4.77
2023-02-24T00:36:56.419Z,4.75
2023-02-24T00:37:56.392Z,4.71
2023-02-24T00:38:56.394Z,4.67
2023-02-24T00:39:56.371Z,4.71
2023-02-24T00:40:56.372Z,4.73
2023-02-24T00:41:56.355Z,4.70
2023-02-24T00:42:56.348Z,4.68
2023-02-24T00:43:56.347Z,4.74
2023-02-24T00:44:56.355Z,4.74
2023-02-24T00:45:56.355Z,4.67
2023-02-24T00:46:56.305Z,4.78
2023-02-24T00:47:56.283Z,4.58
2023-02-24T00:48:56.275Z,4.70
2023-02-24T00:49:56.285Z,4.71
2023-02-24T00:50:56.262Z,4.73
2023-02-24T00:51:56.237Z,4.58
2023-02-24T00:52:56.233Z,4.73
2023-02-24T00:53:56.237Z,4.66
2023-02-24T00:54:56.208Z,4.68
2023-02-24T00:55:56.203Z,4.71
2023-02-24T00:56:56.186Z,4.66
2023-02-24T00:57:56.190Z,4.73
2023-02-24T00:58:56.164Z,4.67
2023-02-24T00:59:56.174Z,4.56
2023-02-24T01:00:56.148Z,4.50
2023-02-24T01:01:56.162Z,4.48
2023-02-24T01:02:56.128Z,4.52
2023-02-24T01:03:56.134Z,4.42
2023-02-24T01:04:56.104Z,4.32
2023-02-24T01:05:56.094Z,4.35
2023-02-24T01:06:56.071Z,4.28
2023-02-24T01:07:56.057Z,4.35
2023-02-24T01:08:56.053Z,4.31
2023-02-24T01:09:56.059Z,4.31
2023-02-24T01:10:56.049Z,4.22
2023-02-24T01:11:56.095Z,4.23
2023-02-24T01:12:56.004Z,4.16
2023-02-24T01:13:56.005Z,4.17
2023-02-24T01:14:55.979Z,4.19
2023-02-24T01:15:56.095Z,4.16
2023-02-24T01:16:55.979Z,4.13
2023-02-24T01:17:55.949Z,4.14
2023-02-24T01:18:55.940Z,4.10
2023-02-24T01:19:55.925Z,3.98
2023-02-24T01:20:55.918Z,4.04
2023-02-24T01:21:55.909Z,4.02
2023-02-24T01:22:55.914Z,3.95
2023-02-24T01:23:55.888Z,3.99
2023-02-24T01:24:55.866Z,3.91
2023-02-24T01:25:55.859Z,3.87
2023-02-24T01:26:55.845Z,3.88
2023-02-24T01:27:55.861Z,3.84
2023-02-24T01:28:55.822Z,3.81
2023-02-24T01:29:55.813Z,3.83
2023-02-24T01:30:55.976Z,3.81
2023-02-24T01:31:56.024Z,3.81
2023-02-24T01:32:55.943Z,3.88
2023-02-24T01:33:55.776Z,3.92
2023-02-24T01:34:55.758Z,3.78
2023-02-24T01:35:55.758Z,3.86
2023-02-24T01:36:55.741Z,3.81
2023-02-24T01:37:55.730Z,3.74
2023-02-24T01:38:55.749Z,3.83
2023-02-24T01:39:55.719Z,3.78
2023-02-24T01:40:55.695Z,3.70
2023-02-24T01:41:55.690Z,3.74
2023-02-24T01:42:55.671Z,3.65
2023-02-24T01:43:55.664Z,3.74
2023-02-24T01:44:55.672Z,3.74
2023-02-24T01:45:55.641Z,3.70
2023-02-24T01:46:55.701Z,3.68
2023-02-24T01:47:55.642Z,3.68
2023-02-24T01:48:55.606Z,3.56
2023-02-24T01:49:55.603Z,3.58
2023-02-24T01:50:55.609Z,3.62
2023-02-24T01:51:55.578Z,3.59
2023-02-24T01:52:55.560Z,3.59
2023-02-24T01:53:55.557Z,3.58
2023-02-24T01:54:55.554Z,3.55
2023-02-24T01:55:55.537Z,3.50
2023-02-24T01:56:55.535Z,3.41
2023-02-24T01:57:55.510Z,3.45
2023-02-24T01:58:55.494Z,3.40
2023-02-24T01:59:55.501Z,3.45
2023-02-24T02:00:55.478Z,3.41
2023-02-24T02:01:55.618Z,3.40
2023-02-24T02:02:55.467Z,3.40
2023-02-24T02:03:55.473Z,3.44
2023-02-24T02:04:55.430Z,3.42
2023-02-24T02:05:55.432Z,3.42
2023-02-24T02:06:55.429Z,3.41
2023-02-24T02:07:55.403Z,3.45
2023-02-24T02:08:55.387Z,3.37
2023-02-24T02:09:55.396Z,3.40
2023-02-24T02:10:55.371Z,3.26
2023-02-24T02:11:55.357Z,3.25
2023-02-24T02:12:55.357Z,3.28
2023-02-24T02:13:55.434Z,3.23
2023-02-24T02:14:55.323Z,3.25
2023-02-24T02:15:55.334Z,3.10
2023-02-24T02:16:55.313Z,3.18
2023-02-24T02:17:55.298Z,3.16
2023-02-24T02:18:55.277Z,3.21
2023-02-24T02:19:55.290Z,3.25
2023-02-24T02:20:55.253Z,3.28
2023-02-24T02:21:55.257Z,3.26
2023-02-24T02:22:55.256Z,3.23
2023-02-24T02:23:55.231Z,3.26
2023-02-24T02:24:55.221Z,3.23
2023-02-24T02:25:55.205Z,3.28
2023-02-24T02:26:55.196Z,3.23
2023-02-24T02:27:55.181Z,3.19
2023-02-24T02:28:55.178Z,3.08
2023-02-24T02:29:55.159Z,3.00
2023-02-24T02:30:55.169Z,3.08
2023-02-24T02:31:55.420Z,3.05
2023-02-24T02:32:55.248Z,3.05
2023-02-24T02:33:55.118Z,3.18
2023-02-24T02:34:55.102Z,3.04
2023-02-24T02:35:55.112Z,3.04
2023-02-24T02:36:55.089Z,3.05
2023-02-24T02:37:55.094Z,3.07
2023-02-24T02:38:55.061Z,3.05
2023-02-24T02:39:55.048Z,3.01
2023-02-24T02:40:55.037Z,3.03
2023-02-24T02:41:55.038Z,3.00
2023-02-24T02:42:55.032Z,3.00
2023-02-24T02:43:55.008Z,3.08
2023-02-24T02:44:54.993Z,3.11
2023-02-24T02:45:55.005Z,3.10
2023-02-24T02:46:54.975Z,3.10
2023-02-24T02:47:54.967Z,3.05
2023-02-24T02:48:54.950Z,3.08
2023-02-24T02:49:54.951Z,3.11
2023-02-24T02:50:54.988Z,3.04
2023-02-24T02:51:54.947Z,3.01
2023-02-24T02:52:54.897Z,3.10
2023-02-24T02:53:54.913Z,2.90
2023-02-24T02:54:54.874Z,3.05
2023-02-24T02:55:54.864Z,3.00
2023-02-24T02:56:54.856Z,3.04
2023-02-24T02:57:54.863Z,3.03
2023-02-24T02:58:54.846Z,3.05
2023-02-24T02:59:54.822Z,3.05
2023-02-24T03:00:54.834Z,3.01
2023-02-24T03:01:54.799Z,3.03
2023-02-24T03:02:54.790Z,3.01
2023-02-24T03:03:54.779Z,2.98
2023-02-24T03:05:02.362Z,2.95
2023-02-24T03:05:54.753Z,2.95
2023-02-24T03:06:54.751Z,2.98
2023-02-24T03:07:54.758Z,2.92
2023-02-24T03:08:54.717Z,2.93
2023-02-24T03:09:54.727Z,2.98
2023-02-24T03:10:54.698Z,2.97
2023-02-24T03:11:54.704Z,2.97
2023-02-24T03:12:54.686Z,2.92
2023-02-24T03:13:54.697Z,2.82
2023-02-24T03:14:54.649Z,2.85
2023-02-24T03:15:54.665Z,2.79
2023-02-24T03:16:54.682Z,2.82
2023-02-24T03:17:54.646Z,2.77
2023-02-24T03:18:54.608Z,2.83
2023-02-24T03:19:54.596Z,2.83
2023-02-24T03:20:54.589Z,2.80
2023-02-24T03:21:54.578Z,2.85
2023-02-24T03:22:54.581Z,2.87
2023-02-24T03:23:54.622Z,2.92
2023-02-24T03:24:54.545Z,2.90
2023-02-24T03:25:54.557Z,2.87
2023-02-24T03:26:54.519Z,2.83
2023-02-24T03:27:54.538Z,2.82
2023-02-24T03:28:54.498Z,2.86
2023-02-24T03:29:54.508Z,2.87
2023-02-24T03:30:54.597Z,2.83
2023-02-24T03:31:54.612Z,2.77
2023-02-24T03:32:54.725Z,2.74
2023-02-24T03:33:54.454Z,2.85
2023-02-24T03:34:54.443Z,2.83
2023-02-24T03:35:54.427Z,2.72
2023-02-24T03:36:54.452Z,2.68
2023-02-24T03:37:54.409Z,2.74
2023-02-24T03:38:54.409Z,2.71
2023-02-24T03:39:54.410Z,2.71
2023-02-24T03:40:54.370Z,2.71
2023-02-24T03:41:54.361Z,2.65
2023-02-24T03:42:54.369Z,2.74
2023-02-24T03:43:54.342Z,2.74
2023-02-24T03:44:54.328Z,2.68
2023-02-24T03:45:54.355Z,2.75
2023-02-24T03:46:54.308Z,2.62
2023-02-24T03:47:54.357Z,2.71
2023-02-24T03:48:54.290Z,2.60
2023-02-24T03:49:54.275Z,2.65
2023-02-24T03:50:54.262Z,2.62
2023-02-24T03:51:54.263Z,2.62
2023-02-24T03:52:54.232Z,2.56
2023-02-24T03:53:54.221Z,2.60
2023-02-24T03:54:54.246Z,2.61
2023-02-24T03:55:54.218Z,2.64
2023-02-24T03:56:54.190Z,2.56
2023-02-24T03:57:54.181Z,2.51
2023-02-24T03:58:54.187Z,2.51
2023-02-24T03:59:54.155Z,2.61
2023-02-24T04:00:54.143Z,2.56
2023-02-24T04:01:54.137Z,2.61
2023-02-24T04:02:54.124Z,2.50
2023-02-24T04:03:54.140Z,2.54
2023-02-24T04:04:54.141Z,2.46
2023-02-24T04:05:54.108Z,2.50
2023-02-24T04:06:56.192Z,2.47
2023-02-24T04:07:54.071Z,2.53
2023-02-24T04:08:54.063Z,2.44
2023-02-24T04:09:54.055Z,2.51
2023-02-24T04:10:54.047Z,2.50
2023-02-24T04:11:54.046Z,2.51
2023-02-24T04:12:54.115Z,2.50
2023-02-24T04:13:54.001Z,2.53
2023-02-24T04:14:54.017Z,2.65
2023-02-24T04:15:54.025Z,2.50
2023-02-24T04:16:53.973Z,2.60
2023-02-24T04:17:53.966Z,2.62
2023-02-24T04:18:53.947Z,2.53
2023-02-24T04:19:53.972Z,2.57
2023-02-24T04:20:53.927Z,2.50
2023-02-24T04:21:53.922Z,2.51
2023-02-24T04:22:53.903Z,2.44
2023-02-24T04:23:53.891Z,2.46
2023-02-24T04:24:53.895Z,2.46
2023-02-24T04:25:53.918Z,2.44
2023-02-24T04:26:53.870Z,2.50
2023-02-24T04:27:53.870Z,2.43
2023-02-24T04:28:53.847Z,2.50
2023-02-24T04:29:53.827Z,2.50
2023-02-24T04:30:53.994Z,2.43
2023-02-24T04:31:54.052Z,2.47
2023-02-24T04:32:53.821Z,2.46
2023-02-24T04:33:53.781Z,2.44
2023-02-24T04:34:53.766Z,2.53
2023-02-24T04:35:53.817Z,2.44
2023-02-24T04:36:53.764Z,2.47
2023-02-24T04:37:53.741Z,2.53
2023-02-24T04:38:53.725Z,2.54
2023-02-24T04:39:53.726Z,2.54
2023-02-24T04:40:53.737Z,2.49
2023-02-24T04:41:53.704Z,2.49
2023-02-24T04:42:53.681Z,2.51
2023-02-24T04:43:53.696Z,2.51
2023-02-24T04:44:53.669Z,2.43
2023-02-24T04:45:53.650Z,2.56
2023-02-24T04:46:53.644Z,2.53
2023-02-24T04:47:53.640Z,2.56
2023-02-24T04:48:53.629Z,2.51
2023-02-24T04:49:53.609Z,2.54
2023-02-24T04:50:53.609Z,2.53
2023-02-24T04:51:53.624Z,2.51
2023-02-24T04:52:53.565Z,2.54
2023-02-24T04:53:53.577Z,2.60
2023-02-24T04:54:53.555Z,2.56
2023-02-24T04:55:53.542Z,2.50
2023-02-24T04:56:53.535Z,2.51
2023-02-24T04:57:53.532Z,2.57
2023-02-24T04:58:53.509Z,2.60
2023-02-24T04:59:53.520Z,2.68
2023-02-24T05:00:53.506Z,2.57
2023-02-24T05:01:53.479Z,2.60
2023-02-24T05:02:53.464Z,2.65
2023-02-24T05:03:53.534Z,2.64
2023-02-24T05:04:53.448Z,2.65
2023-02-24T05:05:53.430Z,2.65
2023-02-24T05:06:53.415Z,2.71
2023-02-24T05:07:53.418Z,2.69
2023-02-24T05:08:53.419Z,2.72
2023-02-24T05:09:53.385Z,2.68
2023-02-24T05:10:53.374Z,2.72
2023-02-24T05:11:53.384Z,2.68
2023-02-24T05:12:53.352Z,2.68
2023-02-24T05:13:53.360Z,2.71
2023-02-24T05:14:53.360Z,2.61
2023-02-24T05:15:53.403Z,2.61
2023-02-24T05:16:53.322Z,2.65
2023-02-24T05:17:53.331Z,2.56
2023-02-24T05:18:53.286Z,2.65
2023-02-24T05:19:53.297Z,2.53
2023-02-24T05:20:53.261Z,2.62
2023-02-24T05:21:53.287Z,2.71
2023-02-24T05:22:53.249Z,2.65
2023-02-24T05:23:53.237Z,2.57
2023-02-24T05:24:53.232Z,2.71
2023-02-24T05:25:53.230Z,2.54
2023-02-24T05:26:53.209Z,2.65
2023-02-24T05:27:53.191Z,2.71
2023-02-24T05:28:53.180Z,2.71
2023-02-24T05:29:55.180Z,2.72
2023-02-24T05:30:53.280Z,2.77
2023-02-24T05:31:53.291Z,2.75
2023-02-24T05:32:53.141Z,2.75
2023-02-24T05:33:53.121Z,2.72
2023-02-24T05:34:53.122Z,2.80
2023-02-24T05:35:53.113Z,2.87
2023-02-24T05:36:53.088Z,2.89
2023-02-24T05:37:53.071Z,2.87
2023-02-24T05:38:55.537Z,2.85
2023-02-24T05:39:53.335Z,2.92
2023-02-24T05:40:53.064Z,2.89
2023-02-24T05:41:53.026Z,2.80
2023-02-24T05:42:53.017Z,2.92
2023-02-24T05:43:53.045Z,2.89
2023-02-24T05:44:53.022Z,2.92
2023-02-24T05:45:53.016Z,2.95
2023-02-24T05:46:53.157Z,2.93
2023-02-24T05:47:52.981Z,2.86
2023-02-24T05:48:52.950Z,2.93
2023-02-24T05:49:52.934Z,2.83
2023-02-24T05:50:52.937Z,2.83
2023-02-24T05:51:52.916Z,2.86
2023-02-24T05:52:52.910Z,2.83
2023-02-24T05:53:52.891Z,2.87
2023-02-24T05:54:52.890Z,2.97
2023-02-24T05:55:52.912Z,2.80
2023-02-24T05:56:52.863Z,2.86
2023-02-24T05:57:52.845Z,2.85
2023-02-24T05:58:54.740Z,2.89
2023-02-24T05:59:52.829Z,2.93
2023-02-24T06:00:52.853Z,2.86
2023-02-24T06:01:52.852Z,2.85
2023-02-24T06:02:52.849Z,2.82
2023-02-24T06:03:52.810Z,2.93
2023-02-24T06:04:52.771Z,2.90
2023-02-24T06:05:52.754Z,2.79
2023-02-24T06:06:52.798Z,2.89
2023-02-24T06:07:52.735Z,3.01
2023-02-24T06:08:52.728Z,2.90
2023-02-24T06:09:52.736Z,2.93
2023-02-24T06:10:52.744Z,2.98
2023-02-24T06:11:52.775Z,2.97
2023-02-24T06:12:55.073Z,2.93
2023-02-24T06:13:52.686Z,2.93
2023-02-24T06:14:52.662Z,2.95
2023-02-24T06:15:52.647Z,2.92
2023-02-24T06:16:52.646Z,2.97
2023-02-24T06:17:52.626Z,2.89
2023-02-24T06:18:52.614Z,3.03
2023-02-24T06:19:52.625Z,2.95
2023-02-24T06:20:52.595Z,2.92
2023-02-24T06:21:52.588Z,2.95
2023-02-24T06:22:52.582Z,2.92
2023-02-24T06:23:52.575Z,2.95
2023-02-24T06:24:52.551Z,2.90
2023-02-24T06:25:52.535Z,2.95
2023-02-24T06:26:52.530Z,2.95
2023-02-24T06:27:52.519Z,3.04
2023-02-24T06:28:52.519Z,2.95
2023-02-24T06:29:52.527Z,3.04
2023-02-24T06:30:52.584Z,3.05
2023-02-24T06:31:52.626Z,3.08
2023-02-24T06:32:52.534Z,2.95
2023-02-24T06:33:52.462Z,2.98
2023-02-24T06:34:52.487Z,3.07
2023-02-24T06:35:52.447Z,2.97
2023-02-24T06:36:52.417Z,2.95
2023-02-24T06:37:52.449Z,2.93
2023-02-24T06:38:52.422Z,3.00
2023-02-24T06:39:52.388Z,2.98
2023-02-24T06:40:52.400Z,3.03
2023-02-24T06:41:52.364Z,3.10
2023-02-24T06:42:52.356Z,3.03
2023-02-24T06:43:52.367Z,3.03
2023-02-24T06:44:52.351Z,3.01
2023-02-24T06:45:52.399Z,2.92
2023-02-24T06:46:52.307Z,2.97
2023-02-24T06:47:52.310Z,2.97
2023-02-24T06:48:52.282Z,3.10
2023-02-24T06:49:52.274Z,3.08
2023-02-24T06:50:52.310Z,3.04
2023-02-24T06:51:52.276Z,3.05
2023-02-24T06:52:52.241Z,3.10
2023-02-24T06:53:52.268Z,3.08
2023-02-24T06:54:52.225Z,3.07
2023-02-24T06:55:52.225Z,2.89
2023-02-24T06:56:52.206Z,3.10
2023-02-24T06:57:52.181Z,3.01
2023-02-24T06:58:52.223Z,3.04
2023-02-24T06:59:52.184Z,3.14
2023-02-24T07:00:52.223Z,3.07
2023-02-24T07:01:52.163Z,3.07
2023-02-24T07:02:52.135Z,3.04
2023-02-24T07:03:52.223Z,3.04
2023-02-24T07:04:52.121Z,3.00
2023-02-24T07:05:52.111Z,3.05
2023-02-24T07:06:52.119Z,3.01
2023-02-24T07:07:52.091Z,3.08
2023-02-24T07:08:52.081Z,3.07
2023-02-24T07:09:52.046Z,3.04
2023-02-24T07:10:52.044Z,3.10
2023-02-24T07:11:52.041Z,3.01
2023-02-24T07:12:52.049Z,3.08
2023-02-24T07:13:52.009Z,3.08
2023-02-24T07:14:51.999Z,3.00
2023-02-24T07:15:51.991Z,3.04
2023-02-24T07:16:52.025Z,3.01
2023-02-24T07:17:51.984Z,3.16
2023-02-24T07:18:51.997Z,3.08
2023-02-24T07:19:51.941Z,3.03
2023-02-24T07:20:51.933Z,3.18
2023-02-24T07:21:51.917Z,3.14
2023-02-24T07:22:51.912Z,3.03
2023-02-24T07:23:51.952Z,3.21
2023-02-24T07:24:51.901Z,3.14
2023-02-24T07:25:51.878Z,3.23
2023-02-24T07:26:51.939Z,3.22
2023-02-24T07:27:51.852Z,3.19
2023-02-24T07:28:51.848Z,3.28
2023-02-24T07:29:53.292Z,3.29
2023-02-24T07:30:51.949Z,3.26
2023-02-24T07:31:52.035Z,3.23
2023-02-24T07:32:51.851Z,3.28
2023-02-24T07:33:51.788Z,3.32
2023-02-24T07:34:51.777Z,3.41
2023-02-24T07:35:51.759Z,3.34
2023-02-24T07:36:51.777Z,3.34
2023-02-24T07:37:51.780Z,3.40
2023-02-24T07:38:51.746Z,3.40
2023-02-24T07:39:51.769Z,3.41
2023-02-24T07:40:51.709Z,3.40
2023-02-24T07:41:51.728Z,3.41
2023-02-24T07:42:51.717Z,3.40
2023-02-24T07:43:51.715Z,3.40
2023-02-24T07:44:51.745Z,3.34
2023-02-24T07:45:51.736Z,3.53
2023-02-24T07:46:51.663Z,3.44
2023-02-24T07:47:51.662Z,3.51
2023-02-24T07:48:51.615Z,3.50
2023-02-24T07:49:51.603Z,3.51
2023-02-24T07:50:51.621Z,3.51
2023-02-24T07:51:51.580Z,3.56
2023-02-24T07:52:51.601Z,3.60
2023-02-24T07:53:52.354Z,3.50
2023-02-24T07:54:51.564Z,3.62
2023-02-24T07:55:51.570Z,3.59
2023-02-24T07:56:51.524Z,3.60
2023-02-24T07:57:51.555Z,3.60
2023-02-24T07:58:51.530Z,3.62
2023-02-24T07:59:51.514Z,3.59
2023-02-24T08:00:51.482Z,3.59
2023-02-24T08:01:51.482Z,3.58
2023-02-24T08:02:51.606Z,3.63
2023-02-24T08:03:51.459Z,3.59
2023-02-24T08:04:51.648Z,3.63
2023-02-24T08:05:51.479Z,3.60
2023-02-24T08:06:51.413Z,3.56
2023-02-24T08:07:51.421Z,3.65
2023-02-24T08:08:51.425Z,3.59
2023-02-24T08:09:51.390Z,3.58
2023-02-24T08:10:51.374Z,3.59
2023-02-24T08:11:51.387Z,3.70
2023-02-24T08:12:51.376Z,3.66
2023-02-24T08:13:51.331Z,3.68
2023-02-24T08:14:51.616Z,3.60
2023-02-24T08:15:51.335Z,3.73
2023-02-24T08:16:51.307Z,3.69
2023-02-24T08:17:51.328Z,3.68
2023-02-24T08:18:51.283Z,3.68
2023-02-24T08:19:51.274Z,3.66
2023-02-24T08:20:51.271Z,3.65
2023-02-24T08:21:51.245Z,3.66
2023-02-24T08:22:51.242Z,3.56
2023-02-24T08:23:51.224Z,3.60
2023-02-24T08:24:51.222Z,3.73
2023-02-24T08:25:51.209Z,3.77
2023-02-24T08:26:51.200Z,3.66
2023-02-24T08:28:05.166Z,3.78
2023-02-24T08:28:52.173Z,3.70
2023-02-24T08:29:51.160Z,3.68
2023-02-24T08:30:51.309Z,3.65
2023-02-24T08:31:51.266Z,3.70
2023-02-24T08:32:51.175Z,3.74
2023-02-24T08:33:51.137Z,3.70
2023-02-24T08:34:51.107Z,3.74
2023-02-24T08:35:51.108Z,3.81
2023-02-24T08:36:51.084Z,3.73
2023-02-24T08:37:51.108Z,3.80
2023-02-24T08:38:51.061Z,3.86
2023-02-24T08:39:51.051Z,3.84
2023-02-24T08:40:51.047Z,3.86
2023-02-24T08:41:51.025Z,3.78
2023-02-24T08:42:51.014Z,3.81
2023-02-24T08:43:51.024Z,3.78
2023-02-24T08:44:51.000Z,3.68
2023-02-24T08:45:50.996Z,3.81
2023-02-24T08:46:51.072Z,3.83
2023-02-24T08:47:50.957Z,3.83
2023-02-24T08:48:50.955Z,3.74
2023-02-24T08:49:50.968Z,3.70
2023-02-24T08:50:50.928Z,3.74
2023-02-24T08:51:50.915Z,3.74
2023-02-24T08:52:50.927Z,3.76
2023-02-24T08:53:50.900Z,3.73
2023-02-24T08:54:50.907Z,3.81
2023-02-24T08:55:50.897Z,3.78
2023-02-24T08:56:50.894Z,3.68
2023-02-24T08:57:53.418Z,3.74
2023-02-24T08:58:50.845Z,3.68
2023-02-24T08:59:50.861Z,3.81
2023-02-24T09:00:50.871Z,3.70
2023-02-24T09:02:02.736Z,3.68
2023-02-24T09:02:51.808Z,3.66
2023-02-24T09:03:50.785Z,3.66
2023-02-24T09:04:50.779Z,3.68
2023-02-24T09:05:58.352Z,3.78
2023-02-24T09:06:53.780Z,3.70
2023-02-24T09:07:50.752Z,3.69
2023-02-24T09:08:50.767Z,3.59
2023-02-24T09:09:50.740Z,3.65
2023-02-24T09:10:50.722Z,3.59
2023-02-24T09:11:50.715Z,3.59
2023-02-24T09:12:50.702Z,3.58
2023-02-24T09:13:50.698Z,3.51
2023-02-24T09:14:50.729Z,3.50
2023-02-24T09:15:50.691Z,3.51
2023-02-24T09:16:50.648Z,3.47
2023-02-24T09:17:50.645Z,3.53
2023-02-24T09:18:50.653Z,3.53
2023-02-24T09:19:50.607Z,3.56
2023-02-24T09:20:50.609Z,3.55
2023-02-24T09:21:50.590Z,3.51
2023-02-24T09:22:50.583Z,3.44
2023-02-24T09:23:50.589Z,3.48
2023-02-24T09:24:50.558Z,3.55
2023-02-24T09:25:51.312Z,3.47
2023-02-24T09:26:50.531Z,3.45
2023-02-24T09:27:50.523Z,3.44
2023-02-24T09:28:50.560Z,3.53
2023-02-24T09:29:50.517Z,3.42
2023-02-24T09:30:50.516Z,3.44
2023-02-24T09:31:50.775Z,3.45
2023-02-24T09:32:50.705Z,3.37
2023-02-24T09:33:50.491Z,3.37
2023-02-24T09:34:50.445Z,3.42
2023-02-24T09:35:50.450Z,3.41
2023-02-24T09:36:50.435Z,3.37
2023-02-24T09:37:50.410Z,3.44
2023-02-24T09:38:50.400Z,3.37
2023-02-24T09:39:50.405Z,3.42
2023-02-24T09:40:50.377Z,3.40
2023-02-24T09:41:50.363Z,3.41
2023-02-24T09:42:50.363Z,3.45
2023-02-24T09:43:50.338Z,3.45
2023-02-24T09:44:50.327Z,3.40
2023-02-24T09:45:50.478Z,3.41
2023-02-24T09:46:50.362Z,3.41
2023-02-24T09:47:50.315Z,3.41
2023-02-24T09:48:50.291Z,3.42
2023-02-24T09:49:50.312Z,3.29
2023-02-24T09:51:02.586Z,3.28
2023-02-24T09:51:51.247Z,3.26
2023-02-24T09:52:52.177Z,3.36
2023-02-24T09:53:50.227Z,3.44
2023-02-24T09:54:50.212Z,3.34
2023-02-24T09:55:50.213Z,3.42
2023-02-24T09:56:50.200Z,3.41
2023-02-24T09:57:50.182Z,3.41
2023-02-24T09:58:50.165Z,3.41
2023-02-24T09:59:50.164Z,3.41
2023-02-24T10:00:50.221Z,3.34
2023-02-24T10:01:50.147Z,3.42
2023-02-24T10:02:50.124Z,3.40
2023-02-24T10:03:50.139Z,3.40
2023-02-24T10:04:50.102Z,3.42
2023-02-24T10:05:50.093Z,3.45
2023-02-24T10:06:50.114Z,3.41
2023-02-24T10:07:50.071Z,3.36
2023-02-24T10:08:50.064Z,3.48
2023-02-24T10:09:50.055Z,3.50
2023-02-24T10:10:50.038Z,3.51
2023-02-24T10:11:50.040Z,3.42
2023-02-24T10:12:50.014Z,3.32
2023-02-24T10:13:50.071Z,3.47
2023-02-24T10:14:51.443Z,3.40
2023-02-24T10:15:50.155Z,3.47
2023-02-24T10:16:51.007Z,3.41
2023-02-24T10:17:49.974Z,3.41
2023-02-24T10:18:49.947Z,3.41
2023-02-24T10:19:49.959Z,3.42
2023-02-24T10:20:49.966Z,3.32
2023-02-24T10:21:49.992Z,3.29
2023-02-24T10:22:49.929Z,3.32
2023-02-24T10:23:54.871Z,3.37
2023-02-24T10:24:49.904Z,3.41
2023-02-24T10:25:49.887Z,3.47
2023-02-24T10:27:00.116Z,3.41
2023-02-24T10:27:50.864Z,3.40
2023-02-24T10:28:49.837Z,3.41
2023-02-24T10:29:49.829Z,3.36
2023-02-24T10:30:49.950Z,3.37
2023-02-24T10:31:50.014Z,3.42
2023-02-24T10:32:49.869Z,3.45
2023-02-24T10:33:49.790Z,3.45
2023-02-24T10:34:49.796Z,3.44
2023-02-24T10:35:49.798Z,3.50
2023-02-24T10:36:49.750Z,3.47
2023-02-24T10:37:49.754Z,3.41
2023-02-24T10:38:49.733Z,3.32
2023-02-24T10:39:51.896Z,3.44
2023-02-24T10:40:49.700Z,3.32
2023-02-24T10:41:49.779Z,3.50
2023-02-24T10:42:49.710Z,3.45
2023-02-24T10:43:49.735Z,3.47
2023-02-24T10:45:01.199Z,3.48
2023-02-24T10:45:50.701Z,3.53
2023-02-24T10:46:49.775Z,3.51
2023-02-24T10:47:49.651Z,3.63
2023-02-24T10:48:49.639Z,3.59
2023-02-24T10:49:49.629Z,3.59
2023-02-24T10:50:55.969Z,3.58
2023-02-24T10:51:50.603Z,3.59
2023-02-24T10:52:49.574Z,3.53
2023-02-24T10:53:49.596Z,3.63
2023-02-24T10:54:49.575Z,3.60
2023-02-24T10:55:49.540Z,3.56
2023-02-24T10:56:49.526Z,3.60
2023-02-24T10:57:58.500Z,3.60
2023-02-24T10:58:50.537Z,3.60
2023-02-24T10:59:49.558Z,3.60
2023-02-24T11:00:49.483Z,3.59
2023-02-24T11:01:49.643Z,3.56
2023-02-24T11:02:49.497Z,3.56
2023-02-24T11:03:49.454Z,3.62
2023-02-24T11:04:49.472Z,3.60
2023-02-24T11:05:49.426Z,3.59
2023-02-24T11:06:49.419Z,3.68
2023-02-24T11:07:49.423Z,3.58
2023-02-24T11:08:49.389Z,3.55
2023-02-24T11:09:49.382Z,3.66
2023-02-24T11:10:49.376Z,3.65
2023-02-24T11:11:49.375Z,3.69
2023-02-24T11:12:53.567Z,3.68
2023-02-24T11:13:49.345Z,3.65
2023-02-24T11:14:49.327Z,3.74
2023-02-24T11:15:49.358Z,3.68
2023-02-24T11:16:49.300Z,3.70
2023-02-24T11:17:49.359Z,3.68
2023-02-24T11:18:49.273Z,3.76
2023-02-24T11:19:49.314Z,3.86
2023-02-24T11:20:50.114Z,3.80
2023-02-24T11:21:49.250Z,3.87
2023-02-24T11:22:49.250Z,3.83
2023-02-24T11:23:49.243Z,3.78
2023-02-24T11:24:49.210Z,3.74
2023-02-24T11:25:49.205Z,3.78
2023-02-24T11:26:49.189Z,3.76
2023-02-24T11:27:49.188Z,3.76
2023-02-24T11:28:49.178Z,3.77
2023-02-24T11:29:49.180Z,3.77
2023-02-24T11:30:49.286Z,3.80
2023-02-24T11:31:49.320Z,3.81
2023-02-24T11:32:49.183Z,3.87
2023-02-24T11:33:49.114Z,3.83
2023-02-24T11:34:49.103Z,3.86
2023-02-24T11:35:49.108Z,3.87
2023-02-24T11:36:49.087Z,3.95
2023-02-24T11:37:49.067Z,3.92
2023-02-24T11:38:49.218Z,3.86
2023-02-24T11:39:49.082Z,3.96
2023-02-24T11:40:49.051Z,3.92
2023-02-24T11:41:49.045Z,3.96
2023-02-24T11:42:49.024Z,3.94
2023-02-24T11:43:49.016Z,3.95
2023-02-24T11:44:48.992Z,4.02
2023-02-24T11:45:48.992Z,4.04
2023-02-24T11:46:48.983Z,4.01
2023-02-24T11:47:48.974Z,3.94
2023-02-24T11:48:49.001Z,3.94
2023-02-24T11:49:48.950Z,3.96
2023-02-24T11:50:48.935Z,3.88
2023-02-24T11:51:48.939Z,4.02
2023-02-24T11:52:48.939Z,4.01
2023-02-24T11:53:48.900Z,3.98
2023-02-24T11:54:48.905Z,4.08
2023-02-24T11:55:48.892Z,4.13
2023-02-24T11:56:48.877Z,4.13
2023-02-24T11:57:48.856Z,4.04
2023-02-24T11:58:48.882Z,4.10
2023-02-24T11:59:48.827Z,4.20
2023-02-24T12:00:48.811Z,4.20
2023-02-24T12:01:48.816Z,4.12
2023-02-24T12:02:48.959Z,4.16
2023-02-24T12:03:48.799Z,4.17
2023-02-24T12:04:48.769Z,4.28
2023-02-24T12:05:48.851Z,4.26
2023-02-24T12:06:48.746Z,4.35
2023-02-24T12:07:48.759Z,4.26
2023-02-24T12:08:48.738Z,4.22
2023-02-24T12:09:48.734Z,4.23
2023-02-24T12:10:48.711Z,4.28
2023-02-24T12:11:48.723Z,4.28
2023-02-24T12:12:48.683Z,4.28
2023-02-24T12:13:48.679Z,4.32
2023-02-24T12:14:48.669Z,4.30
2023-02-24T12:15:48.767Z,4.32
2023-02-24T12:16:48.664Z,4.34
2023-02-24T12:17:48.649Z,4.28
2023-02-24T12:18:48.630Z,4.41
2023-02-24T12:19:48.629Z,4.34
2023-02-24T12:20:48.593Z,4.35
2023-02-24T12:21:48.583Z,4.37
2023-02-24T12:22:48.596Z,4.34
2023-02-24T12:23:48.569Z,4.44
2023-02-24T12:24:48.546Z,4.48
2023-02-24T12:25:48.538Z,4.41
2023-02-24T12:26:48.528Z,4.40
2023-02-24T12:27:48.561Z,4.40
2023-02-24T12:28:48.519Z,4.45
2023-02-24T12:29:48.512Z,4.48
2023-02-24T12:30:48.626Z,4.50
2023-02-24T12:31:48.634Z,4.52
2023-02-24T12:32:48.613Z,4.42
2023-02-24T12:33:48.450Z,4.44
2023-02-24T12:34:48.620Z,4.53
2023-02-24T12:35:48.430Z,4.50
2023-02-24T12:36:48.420Z,4.45
2023-02-24T12:37:48.431Z,4.56
2023-02-24T12:38:48.390Z,4.59
2023-02-24T12:39:48.383Z,4.59
2023-02-24T12:40:48.378Z,4.53
2023-02-24T12:41:48.381Z,4.67
2023-02-24T12:42:48.358Z,4.66
2023-02-24T12:43:48.358Z,4.66
2023-02-24T12:44:48.321Z,4.68
2023-02-24T12:45:48.386Z,4.67
2023-02-24T12:46:48.297Z,4.62
2023-02-24T12:47:48.299Z,4.71
2023-02-24T12:48:48.302Z,4.73
2023-02-24T12:49:48.270Z,4.66
2023-02-24T12:50:48.271Z,4.71
2023-02-24T12:51:48.249Z,4.74
2023-02-24T12:52:48.232Z,4.60
2023-02-24T12:53:48.243Z,4.68
2023-02-24T12:54:48.212Z,4.62
2023-02-24T12:55:48.208Z,4.73
2023-02-24T12:56:48.209Z,4.71
2023-02-24T12:57:48.190Z,4.74
2023-02-24T12:58:48.198Z,4.75
2023-02-24T12:59:48.182Z,4.70
2023-02-24T13:00:48.165Z,4.71
2023-02-24T13:01:48.145Z,4.74
2023-02-24T13:02:48.146Z,4.86
2023-02-24T13:03:48.113Z,4.78
2023-02-24T13:04:48.118Z,4.90
2023-02-24T13:05:48.094Z,4.86
2023-02-24T13:06:48.080Z,4.90
2023-02-24T13:07:48.092Z,4.86
2023-02-24T13:08:48.059Z,4.86
2023-02-24T13:09:48.053Z,4.82
2023-02-24T13:10:48.058Z,4.86
2023-02-24T13:11:48.034Z,4.96
2023-02-24T13:12:48.011Z,4.94
2023-02-24T13:13:48.018Z,4.92
2023-02-24T13:14:48.004Z,4.87
2023-02-24T13:15:48.004Z,4.90
2023-02-24T13:16:48.076Z,4.99
2023-02-24T13:17:48.011Z,4.93
2023-02-24T13:18:47.955Z,5.08